createdAt,value
2023-03-04T00:02:27.843Z,28.73
2023-03-04T00:04:54.602Z,29.08
2023-03-04T00:07:21.340Z,29.83
2023-03-04T00:09:48.141Z,29.33
2023-03-04T00:12:15.243Z,30.70
2023-03-04T00:14:42.130Z,29.73
2023-03-04T00:17:09.164Z,29.80
2023-03-04T00:19:36.275Z,30.38
2023-03-04T00:22:04.639Z,31.20
2023-03-04T00:24:31.715Z,31.00
2023-03-04T00:26:58.594Z,31.10
2023-03-04T00:29:25.349Z,28.55
2023-03-04T00:31:52.105Z,31.55
2023-03-04T00:34:19.031Z,31.05
2023-03-04T00:36:45.724Z,28.73
2023-03-04T00:39:13.480Z,30.13
2023-03-04T00:41:40.490Z,30.27
2023-03-04T00:44:07.552Z,28.95
2023-03-04T00:46:34.408Z,27.48
2023-03-04T00:49:01.096Z,27.58
2023-03-04T00:51:27.750Z,29.08
2023-03-04T00:53:54.605Z,29.33
2023-03-04T00:56:21.333Z,30.20
2023-03-04T00:58:48.041Z,30.20
2023-03-04T01:01:14.746Z,28.52
2023-03-04T01:03:42.409Z,29.95
2023-03-04T01:06:09.352Z,28.85
2023-03-04T01:08:36.199Z,30.73
2023-03-04T01:11:02.942Z,30.63
2023-03-04T01:13:29.777Z,30.60
2023-03-04T01:15:57.621Z,29.27
2023-03-04T01:18:24.985Z,29.02
2023-03-04T01:20:51.800Z,28.02
2023-03-04T01:23:18.519Z,27.98
2023-03-04T01:25:45.233Z,27.15
2023-03-04T01:28:11.982Z,28.27
2023-03-04T01:30:38.830Z,28.48
2023-03-04T01:33:05.606Z,27.00
2023-03-04T01:35:32.485Z,28.55
2023-03-04T01:37:59.206Z,27.15
2023-03-04T01:40:25.985Z,27.40
2023-03-04T01:42:52.809Z,26.85
2023-03-04T01:45:20.838Z,28.23
2023-03-04T01:47:49.178Z,27.83
2023-03-04T01:50:32.893Z,28.67
2023-03-04T01:53:00.432Z,28.40
2023-03-04T01:55:28.674Z,28.23
2023-03-04T01:57:57.319Z,29.30
2023-03-04T02:00:28.007Z,28.90
2023-03-04T02:03:07.218Z,29.40
2023-03-04T02:05:35.757Z,29.25
2023-03-04T02:08:04.742Z,32.63
2023-03-04T02:10:32.330Z,30.42
2023-03-04T02:13:01.011Z,29.63
2023-03-04T02:15:29.544Z,29.15
2023-03-04T02:17:56.400Z,30.00
2023-03-04T02:20:51.170Z,29.25
2023-03-04T02:23:30.482Z,28.20
2023-03-04T02:26:20.722Z,28.40
2023-03-04T02:28:50.909Z,29.00
2023-03-04T02:31:38.035Z,29.02
2023-03-04T02:34:16.794Z,29.15
2023-03-04T02:36:45.069Z,28.05
2023-03-04T02:39:21.553Z,28.08
2023-03-04T02:41:53.624Z,28.55
2023-03-04T02:44:21.590Z,27.63
2023-03-04T02:46:51.286Z,27.77
2023-03-04T02:49:19.186Z,28.35
2023-03-04T02:51:46.444Z,28.02
2023-03-04T02:54:18.569Z,26.58
2023-03-04T02:56:48.916Z,28.23
2023-03-04T02:59:16.679Z,28.23
2023-03-04T03:01:43.522Z,27.75
2023-03-04T03:04:10.552Z,28.60
2023-03-04T03:06:37.359Z,29.38
2023-03-04T03:09:04.181Z,28.98
2023-03-04T03:11:31.408Z,27.70
2023-03-04T03:13:58.143Z,27.63
2023-03-04T03:16:24.947Z,26.80
2023-03-04T03:18:51.963Z,27.33
2023-03-04T03:21:18.836Z,29.05
2023-03-04T03:23:45.590Z,27.70
2023-03-04T03:26:12.277Z,29.05
2023-03-04T03:28:38.959Z,27.23
2023-03-04T03:31:06.039Z,28.13
2023-03-04T03:33:32.765Z,28.08
2023-03-04T03:36:00.462Z,27.73
2023-03-04T03:38:27.845Z,26.60
2023-03-04T03:40:54.504Z,28.55
2023-03-04T03:43:21.206Z,29.10
2023-03-04T03:45:47.933Z,27.90
2023-03-04T03:48:14.705Z,27.63
2023-03-04T03:50:41.520Z,27.38
2023-03-04T03:53:08.197Z,27.48
2023-03-04T03:55:34.869Z,27.13
2023-03-04T03:58:01.654Z,27.75
2023-03-04T04:00:28.322Z,28.40
2023-03-04T04:02:56.685Z,27.33
2023-03-04T04:05:23.402Z,27.70
2023-03-04T04:07:51.383Z,26.63
2023-03-04T04:10:19.320Z,26.98
2023-03-04T04:12:46.084Z,27.77
2023-03-04T04:15:13.723Z,27.40
2023-03-04T04:17:40.478Z,27.48
2023-03-04T04:20:08.542Z,26.42
2023-03-04T04:22:35.195Z,28.25
2023-03-04T04:25:01.902Z,28.20
2023-03-04T04:27:28.600Z,27.50
2023-03-04T04:29:55.252Z,27.42
2023-03-04T04:32:22.021Z,29.75
2023-03-04T04:34:48.731Z,26.83
2023-03-04T04:37:15.407Z,28.83
2023-03-04T04:39:42.098Z,27.00
2023-03-04T04:42:10.959Z,27.65
2023-03-04T04:44:38.960Z,26.52
2023-03-04T04:47:07.382Z,27.33
2023-03-04T04:49:34.239Z,27.67
2023-03-04T04:52:01.353Z,28.65
2023-03-04T04:54:28.052Z,28.60
2023-03-04T04:56:54.958Z,26.00
2023-03-04T04:59:21.726Z,27.05
2023-03-04T05:01:48.503Z,27.02
2023-03-04T05:04:15.345Z,28.10
2023-03-04T05:06:42.222Z,27.35
2023-03-04T05:09:08.981Z,26.52
2023-03-04T05:11:35.658Z,27.77
2023-03-04T05:14:02.324Z,30.10
2023-03-04T05:16:29.066Z,27.15
2023-03-04T05:18:55.736Z,28.42
2023-03-04T05:21:22.416Z,26.63
2023-03-04T05:23:49.165Z,26.77
2023-03-04T05:26:17.533Z,27.13
2023-03-04T05:28:44.625Z,26.38
2023-03-04T05:31:11.492Z,27.33
2023-03-04T05:33:38.374Z,26.35
2023-03-04T05:36:06.630Z,28.17
2023-03-04T05:38:33.352Z,26.88
2023-03-04T05:41:03.210Z,25.80
2023-03-04T05:43:30.583Z,26.52
2023-03-04T05:45:57.579Z,25.50
2023-03-04T05:48:24.322Z,26.17
2023-03-04T05:50:58.819Z,27.52
2023-03-04T05:53:25.963Z,26.08
2023-03-04T05:55:53.320Z,26.52
2023-03-04T05:58:20.685Z,26.10
2023-03-04T06:00:48.104Z,26.27
2023-03-04T06:03:17.709Z,25.95
2023-03-04T06:05:44.709Z,26.55
2023-03-04T06:08:12.723Z,26.02
2023-03-04T06:10:40.872Z,27.73
2023-03-04T06:13:08.242Z,26.92
2023-03-04T06:15:35.249Z,27.85
2023-03-04T06:18:02.186Z,27.70
2023-03-04T06:20:29.033Z,27.42
2023-03-04T06:22:56.098Z,27.42
2023-03-04T06:25:24.227Z,27.58
2023-03-04T06:27:51.144Z,28.52
2023-03-04T06:30:19.226Z,27.38
2023-03-04T06:32:47.452Z,27.98
2023-03-04T06:35:14.982Z,27.25
2023-03-04T06:37:42.235Z,27.65
2023-03-04T06:40:10.044Z,26.98
2023-03-04T06:42:37.342Z,28.00
2023-03-04T06:45:05.020Z,28.33
2023-03-04T06:47:31.689Z,26.02
2023-03-04T06:49:58.631Z,27.95
2023-03-04T06:52:25.351Z,27.35
2023-03-04T06:54:52.059Z,28.35
2023-03-04T06:57:18.724Z,28.95
2023-03-04T06:59:45.471Z,27.17
2023-03-04T07:02:12.693Z,30.48
2023-03-04T07:04:39.672Z,28.77
2023-03-04T07:07:06.582Z,29.45
2023-03-04T07:09:33.288Z,33.58
2023-03-04T07:11:59.990Z,30.08
2023-03-04T07:14:27.820Z,31.65
2023-03-04T07:16:54.723Z,35.05
2023-03-04T07:19:21.568Z,36.42
2023-03-04T07:21:48.320Z,37.10
2023-03-04T07:24:15.076Z,37.78
2023-03-04T07:26:41.845Z,39.38
2023-03-04T07:29:08.648Z,37.92
2023-03-04T07:31:36.123Z,36.72
2023-03-04T07:34:08.205Z,37.50
2023-03-04T07:36:36.554Z,36.72
2023-03-04T07:39:04.563Z,37.08
2023-03-04T07:41:31.488Z,39.65
2023-03-04T07:43:58.974Z,41.50
2023-03-04T07:46:25.873Z,40.83
2023-03-04T07:48:53.045Z,40.33
2023-03-04T07:51:22.980Z,39.78
2023-03-04T07:53:52.988Z,40.60
2023-03-04T07:56:23.604Z,40.13
2023-03-04T07:58:53.623Z,36.60
2023-03-04T08:01:32.834Z,35.85
2023-03-04T08:04:00.307Z,39.40
2023-03-04T08:06:27.672Z,43.55
2023-03-04T08:09:05.816Z,40.35
2023-03-04T08:11:33.628Z,39.55
2023-03-04T08:14:00.697Z,40.78
2023-03-04T08:16:27.658Z,43.05
2023-03-04T08:18:57.786Z,40.67
2023-03-04T08:21:26.180Z,42.75
2023-03-04T08:23:53.597Z,41.15
2023-03-04T08:26:29.584Z,39.83
2023-03-04T08:28:57.273Z,41.53
2023-03-04T08:31:24.631Z,40.15
2023-03-04T08:33:52.653Z,39.00
2023-03-04T08:36:19.896Z,39.60
2023-03-04T08:38:46.766Z,39.35
2023-03-04T08:41:13.894Z,39.53
2023-03-04T08:43:40.751Z,40.00
2023-03-04T08:46:07.706Z,40.10
2023-03-04T08:48:34.747Z,39.72
2023-03-04T08:51:01.520Z,39.78
2023-03-04T08:53:28.219Z,39.88
2023-03-04T08:55:54.970Z,40.38
2023-03-04T08:58:21.839Z,39.85
2023-03-04T09:00:51.404Z,40.05
2023-03-04T09:03:20.495Z,37.85
2023-03-04T09:05:48.435Z,39.05
2023-03-04T09:08:15.763Z,38.65
2023-03-04T09:10:43.112Z,38.22
2023-03-04T09:13:11.458Z,39.45
2023-03-04T09:15:43.487Z,38.42
2023-03-04T09:18:10.223Z,39.40
2023-03-04T09:20:36.977Z,38.72
2023-03-04T09:23:03.792Z,36.38
2023-03-04T09:25:30.651Z,37.05
2023-03-04T09:27:57.446Z,38.03
2023-03-04T09:30:24.350Z,36.90
2023-03-04T09:32:51.389Z,36.25
2023-03-04T09:35:18.209Z,36.08
2023-03-04T09:37:46.784Z,35.47
2023-03-04T09:40:20.788Z,35.85
2023-03-04T09:42:55.729Z,38.28
2023-03-04T09:45:27.343Z,34.53
2023-03-04T09:47:55.509Z,35.70
2023-03-04T09:50:22.480Z,33.45
2023-03-04T09:53:07.865Z,32.15
2023-03-04T09:55:40.489Z,33.35
2023-03-04T09:58:25.254Z,34.53
2023-03-04T10:03:48.962Z,35.35
2023-03-04T10:06:21.274Z,33.83
2023-03-04T10:09:29.130Z,33.83
2023-03-04T10:12:02.821Z,35.95
2023-03-04T10:14:40.218Z,33.95
2023-03-04T10:17:23.831Z,33.28
2023-03-04T10:20:10.229Z,31.40
2023-03-04T10:22:51.805Z,31.48
2023-03-04T10:25:27.948Z,32.50
2023-03-04T10:28:02.855Z,32.25
2023-03-04T10:31:23.076Z,30.67
2023-03-04T10:33:50.106Z,30.77
2023-03-04T10:36:36.395Z,32.13
2023-03-04T10:39:12.996Z,31.15
2023-03-04T10:41:45.415Z,31.33
2023-03-04T10:44:16.503Z,33.05
2023-03-04T10:46:48.389Z,31.65
2023-03-04T10:49:18.693Z,30.85
2023-03-04T10:51:52.227Z,31.40
2023-03-04T10:54:28.015Z,32.25
2023-03-04T10:57:05.351Z,32.53
2023-03-04T10:59:43.552Z,34.17
2023-03-04T11:02:31.809Z,31.40
2023-03-04T11:05:07.439Z,32.28
2023-03-04T11:07:54.424Z,32.38
2023-03-04T11:10:39.548Z,31.98
2023-03-04T11:13:17.761Z,30.80
2023-03-04T11:15:56.268Z,31.63
2023-03-04T11:18:49.558Z,30.63
2023-03-04T11:21:22.236Z,33.75
2023-03-04T11:23:51.501Z,30.65
2023-03-04T11:26:39.333Z,31.92
2023-03-04T11:29:14.856Z,31.35
2023-03-04T11:32:13.694Z,29.80
2023-03-04T11:35:07.972Z,30.25
2023-03-04T11:37:44.011Z,30.63
2023-03-04T11:40:30.407Z,29.55
2023-03-04T11:43:18.702Z,30.70
2023-03-04T11:46:25.946Z,29.75
2023-03-04T11:49:11.495Z,29.42
2023-03-04T11:52:14.231Z,27.58
2023-03-04T11:55:02.576Z,27.77
2023-03-04T11:58:19.095Z,28.92
2023-03-04T12:01:18.027Z,29.73
2023-03-04T12:04:12.551Z,28.05
2023-03-04T12:06:59.392Z,27.25
2023-03-04T12:09:33.985Z,27.50
2023-03-04T12:12:44.041Z,25.13
2023-03-04T12:15:13.562Z,24.20
2023-03-04T12:18:14.096Z,25.75
2023-03-04T12:20:57.693Z,26.67
2023-03-04T12:24:01.943Z,25.48
2023-03-04T12:26:41.324Z,25.85
2023-03-04T12:29:28.028Z,25.48
2023-03-04T12:32:03.902Z,26.02
2023-03-04T12:35:02.767Z,25.75
2023-03-04T12:37:51.298Z,26.10
2023-03-04T12:40:32.479Z,22.83
2023-03-04T12:43:11.209Z,22.70
2023-03-04T12:45:46.216Z,22.00
2023-03-04T12:48:19.009Z,22.35
2023-03-04T12:51:09.913Z,21.90
2023-03-04T12:54:02.853Z,19.80
2023-03-04T12:56:48.787Z,18.83
2023-03-04T12:59:18.516Z,18.38
2023-03-04T13:02:18.515Z,17.67
2023-03-04T13:05:05.294Z,19.70
2023-03-04T13:08:00.775Z,17.30
2023-03-04T13:10:27.668Z,17.75
2023-03-04T13:12:55.993Z,17.38
2023-03-04T13:15:22.880Z,16.88
2023-03-04T13:18:02.221Z,17.83
2023-03-04T13:20:36.644Z,20.23
2023-03-04T13:23:09.441Z,19.05
2023-03-04T13:25:44.258Z,19.23
2023-03-04T13:28:30.982Z,18.10
2023-03-04T13:30:59.658Z,18.23
2023-03-04T13:33:26.248Z,18.17
2023-03-04T13:36:26.564Z,17.20
2023-03-04T13:39:03.285Z,16.25
2023-03-04T13:41:32.809Z,16.83
2023-03-04T13:44:06.817Z,14.38
2023-03-04T13:46:43.066Z,15.27
2023-03-04T13:49:23.612Z,13.85
2023-03-04T13:51:50.879Z,13.85
2023-03-04T13:54:46.801Z,14.30
2023-03-04T13:57:18.050Z,12.85
2023-03-04T13:59:55.602Z,12.77
2023-03-04T14:02:25.960Z,14.18
2023-03-04T14:05:00.850Z,13.52
2023-03-04T14:07:36.731Z,12.50
2023-03-04T14:10:11.226Z,12.40
2023-03-04T14:15:20.654Z,15.18
2023-03-04T14:17:50.599Z,14.02
2023-03-04T14:20:34.122Z,13.60
2023-03-04T14:23:03.078Z,13.68
2023-03-04T14:25:36.677Z,13.45
2023-03-04T14:28:11.144Z,13.85
2023-03-04T14:30:43.401Z,14.32
2023-03-04T14:33:20.887Z,14.43
2023-03-04T14:35:50.108Z,13.52
2023-03-04T14:38:23.411Z,14.02
2023-03-04T14:41:05.626Z,14.70
2023-03-04T14:43:38.178Z,15.23
2023-03-04T14:46:12.251Z,13.90
2023-03-04T14:48:50.267Z,14.32
2023-03-04T14:51:41.750Z,14.57
2023-03-04T14:54:24.972Z,13.50
2023-03-04T14:56:51.598Z,14.05
2023-03-04T14:59:18.249Z,13.82
2023-03-04T15:01:45.977Z,14.05
2023-03-04T15:04:19.344Z,14.43
2023-03-04T15:06:55.500Z,14.60
2023-03-04T15:09:27.424Z,14.70
2023-03-04T15:12:08.281Z,14.48
2023-03-04T15:14:42.507Z,14.80
2023-03-04T15:17:39.174Z,14.45
2023-03-04T15:20:05.940Z,14.52
2023-03-04T15:22:44.827Z,15.20
2023-03-04T15:25:15.580Z,16.05
2023-03-04T15:27:44.059Z,15.95
2023-03-04T15:30:21.458Z,15.02
2023-03-04T15:32:48.259Z,14.90
2023-03-04T15:35:16.487Z,15.40
2023-03-04T15:37:44.412Z,15.25
2023-03-04T15:40:31.744Z,16.40
2023-03-04T15:43:01.433Z,15.52
2023-03-04T15:45:32.587Z,15.35
2023-03-04T15:47:59.283Z,15.75
2023-03-04T15:50:29.131Z,14.90
2023-03-04T15:53:00.145Z,15.75
2023-03-04T15:55:27.097Z,16.63
2023-03-04T15:57:56.523Z,16.48
2023-03-04T16:00:23.666Z,16.98
2023-03-04T16:02:50.574Z,16.70
2023-03-04T16:05:17.544Z,16.80
2023-03-04T16:07:50.582Z,17.02
2023-03-04T16:10:20.941Z,17.17
2023-03-04T16:12:48.077Z,17.58
2023-03-04T16:15:20.887Z,17.23
2023-03-04T16:17:48.068Z,17.55
2023-03-04T16:20:18.072Z,18.00
2023-03-04T16:22:46.913Z,18.95
2023-03-04T16:25:15.733Z,18.00
2023-03-04T16:27:42.992Z,19.00
2023-03-04T16:30:20.570Z,19.23
2023-03-04T16:32:48.170Z,20.38
2023-03-04T16:35:16.496Z,20.15
2023-03-04T16:37:44.080Z,20.40
2023-03-04T16:40:14.308Z,22.08
2023-03-04T16:42:41.610Z,21.02
2023-03-04T16:45:17.524Z,20.40
2023-03-04T16:47:44.946Z,21.13
2023-03-04T16:50:16.628Z,21.42
2023-03-04T16:52:45.618Z,23.75
2023-03-04T16:55:17.691Z,22.58
2023-03-04T16:57:44.586Z,22.75
2023-03-04T17:00:12.263Z,22.73
2023-03-04T17:02:39.122Z,22.58
2023-03-04T17:05:09.091Z,22.70
2023-03-04T17:07:36.859Z,23.40
2023-03-04T17:10:03.762Z,23.13
2023-03-04T17:12:30.732Z,23.17
2023-03-04T17:14:57.867Z,23.92
2023-03-04T17:17:24.580Z,25.15
2023-03-04T17:19:51.324Z,24.45
2023-03-04T17:22:18.091Z,25.45
2023-03-04T17:24:44.781Z,25.10
2023-03-04T17:27:11.686Z,25.50
2023-03-04T17:29:38.437Z,26.30
2023-03-04T17:32:05.359Z,26.00
2023-03-04T17:34:32.812Z,25.42
2023-03-04T17:36:59.886Z,24.80
2023-03-04T17:39:26.580Z,26.90
2023-03-04T17:41:53.876Z,26.05
2023-03-04T17:44:20.611Z,26.48
2023-03-04T17:46:49.064Z,27.40
2023-03-04T17:49:16.233Z,27.70
2023-03-04T17:51:43.883Z,26.98
2023-03-04T17:54:11.633Z,27.70
2023-03-04T17:56:40.583Z,28.48
2023-03-04T17:59:10.810Z,29.13
2023-03-04T18:01:37.576Z,28.52
2023-03-04T18:04:04.686Z,26.35
2023-03-04T18:06:31.600Z,27.27
2023-03-04T18:08:58.324Z,27.63
2023-03-04T18:11:26.822Z,27.98
2023-03-04T18:13:56.462Z,27.27
2023-03-04T18:16:26.561Z,28.65
2023-03-04T18:18:57.674Z,27.52
2023-03-04T18:21:25.562Z,27.38
2023-03-04T18:23:52.538Z,27.27
2023-03-04T18:26:22.634Z,28.92
2023-03-04T18:28:50.427Z,27.40
2023-03-04T18:31:21.978Z,27.27
2023-03-04T18:33:49.337Z,28.25
2023-03-04T18:36:16.204Z,26.83
2023-03-04T18:38:42.882Z,26.88
2023-03-04T18:41:14.635Z,26.92
2023-03-04T18:43:41.716Z,26.95
2023-03-04T18:46:29.698Z,26.80
2023-03-04T18:49:01.213Z,27.45
2023-03-04T18:51:27.913Z,27.10
2023-03-04T18:53:54.842Z,27.92
2023-03-04T18:56:28.017Z,26.65
2023-03-04T18:58:54.951Z,27.55
2023-03-04T19:01:25.075Z,26.70
2023-03-04T19:03:52.821Z,26.30
2023-03-04T19:06:19.787Z,26.42
2023-03-04T19:08:46.650Z,25.15
2023-03-04T19:11:13.404Z,27.15
2023-03-04T19:13:40.158Z,26.58
2023-03-04T19:16:07.269Z,24.40
2023-03-04T19:18:33.936Z,24.20
2023-03-04T19:21:01.065Z,24.92
2023-03-04T19:23:29.709Z,24.88
2023-03-04T19:25:56.683Z,24.27
2023-03-04T19:28:24.254Z,24.95
2023-03-04T19:30:53.149Z,23.67
2023-03-04T19:33:20.440Z,23.52
2023-03-04T19:35:47.829Z,25.25
2023-03-04T19:38:14.607Z,25.48
2023-03-04T19:40:42.295Z,23.15
2023-03-04T19:43:09.520Z,23.90
2023-03-04T19:45:36.302Z,23.02
2023-03-04T19:48:03.217Z,23.88
2023-03-04T19:50:31.131Z,22.88
2023-03-04T19:52:57.840Z,22.77
2023-03-04T19:55:24.769Z,22.02
2023-03-04T19:57:51.726Z,22.70
2023-03-04T20:00:18.867Z,22.67
2023-03-04T20:02:47.842Z,23.25
2023-03-04T20:05:14.729Z,22.20
2023-03-04T20:07:41.486Z,22.13
2023-03-04T20:10:09.039Z,20.60
2023-03-04T20:12:36.558Z,21.42
2023-03-04T20:15:06.308Z,21.52
2023-03-04T20:17:33.004Z,22.17
2023-03-04T20:19:59.711Z,22.50
2023-03-04T20:22:26.426Z,22.80
2023-03-04T20:28:41.703Z,22.20
2023-03-04T20:31:12.108Z,23.63
2023-03-04T20:33:39.083Z,23.58
2023-03-04T20:36:05.872Z,23.40
2023-03-04T20:38:32.668Z,24.05
2023-03-04T20:40:59.523Z,23.63
2023-03-04T20:43:28.550Z,22.40
2023-03-04T20:45:55.763Z,22.75
2023-03-04T20:48:22.491Z,23.48
2023-03-04T20:50:49.252Z,23.95
2023-03-04T20:53:16.077Z,22.20
2023-03-04T20:55:42.826Z,22.48
2023-03-04T20:58:09.597Z,21.83
2023-03-04T21:00:38.298Z,20.80
2023-03-04T21:03:05.028Z,21.55
2023-03-04T21:05:31.742Z,20.88
2023-03-04T21:07:58.897Z,20.80
2023-03-04T21:10:25.611Z,20.23
2023-03-04T21:12:52.404Z,21.25
2023-03-04T21:15:19.250Z,21.05
2023-03-04T21:17:45.921Z,20.20
2023-03-04T21:20:15.132Z,20.13
2023-03-04T21:22:41.868Z,20.77
2023-03-04T21:25:08.931Z,21.23
2023-03-04T21:27:38.766Z,20.73
2023-03-04T21:30:06.473Z,21.27
2023-03-04T21:32:33.718Z,21.38
2023-03-04T21:35:00.418Z,21.25
2023-03-04T21:37:27.264Z,21.13
2023-03-04T21:39:55.429Z,19.73
2023-03-04T21:42:22.302Z,19.92
2023-03-04T21:44:51.094Z,19.73
2023-03-04T21:47:19.541Z,20.77
2023-03-04T21:49:46.704Z,20.95
2023-03-04T21:52:13.525Z,20.85
2023-03-04T21:54:40.240Z,21.55
2023-03-04T21:57:07.027Z,22.85
2023-03-04T21:59:33.787Z,25.55
2023-03-04T22:02:01.267Z,25.00
2023-03-04T22:04:28.002Z,23.38
2023-03-04T22:06:54.978Z,23.60
2023-03-04T22:09:21.684Z,21.63
2023-03-04T22:11:48.436Z,22.55
2023-03-04T22:14:15.213Z,23.85
2023-03-04T22:16:54.457Z,22.73
2023-03-04T22:19:23.699Z,22.90
2023-03-04T22:21:51.941Z,29.10
2023-03-04T22:24:18.844Z,28.92
2023-03-04T22:26:45.725Z,24.38
2023-03-04T22:29:12.565Z,24.55
2023-03-04T22:31:39.489Z,24.13
2023-03-04T22:34:12.042Z,23.30
2023-03-04T22:36:42.775Z,23.70
2023-03-04T22:39:11.812Z,29.13
2023-03-04T22:41:38.611Z,25.40
2023-03-04T22:44:06.439Z,28.00
2023-03-04T22:46:35.833Z,30.88
2023-03-04T22:49:05.400Z,31.42
2023-03-04T22:51:32.277Z,31.23
2023-03-04T22:53:58.964Z,26.48
2023-03-04T22:56:25.663Z,26.15
2023-03-04T22:58:52.745Z,23.55
2023-03-04T23:01:20.108Z,24.75
2023-03-04T23:03:48.720Z,24.80
2023-03-04T23:06:21.274Z,22.38
2023-03-04T23:08:50.293Z,24.02
2023-03-04T23:11:22.941Z,24.52
2023-03-04T23:13:50.760Z,21.90
2023-03-04T23:16:18.717Z,22.58
2023-03-04T23:18:47.300Z,23.50
2023-03-04T23:21:18.492Z,24.70
2023-03-04T23:23:45.598Z,23.10
2023-03-04T23:26:27.404Z,23.77
2023-03-04T23:28:57.586Z,22.90
2023-03-04T23:31:25.781Z,23.42
2023-03-04T23:33:57.194Z,22.42
2023-03-04T23:36:35.995Z,23.10
2023-03-04T23:39:04.011Z,24.02
2023-03-04T23:41:31.627Z,22.33
2023-03-04T23:43:59.372Z,23.73
2023-03-04T23:46:26.925Z,24.20
2023-03-04T23:48:54.477Z,23.35
2023-03-04T23:51:24.027Z,22.80
2023-03-04T23:53:50.973Z,23.23
2023-03-04T23:56:24.148Z,22.48
2023-03-04T23:58:50.912Z,23.88
